Terminal Aerodrome Forecast
Issued by NWS

Home | Current Version | Previous Version | Text Only | Print | Product List | Glossary On
Versions: 1 2 3 4 5 6 7 8 9 10 11 12 13 14 15 16 17 18 19 20 21 22 23 24 25 26 27 28 29 30 31 32 33 34 35 36
000
FTPA31 PHFO 060500
TAFLNY
TAF
PHNY 060538Z 0606/0706 05015G25KT P6SM SCT050
      TEMPO 0606/0610 04015KT
     FM061000 04008KT P6SM SCT025
     FM061700 VRB03KT P6SM SCT020 BKN050
     FM061900 04018G28KT P6SM FEW020 SCT050
     FM070200 04015G25KT P6SM SCT025 BKN035
      AMD NOT SKED=

USA.gov is the U.S. government's official web portal to all federal, state and local government web resources and services.